sensor_id;sensor_type;location;lat;lon;timestamp;temperature;humidity
43320;DHT22;28914;48.722;9.332;2023-06-04T00:03:07;18.40;55.00
43320;DHT22;28914;48.722;9.332;2023-06-04T00:08:26;18.30;54.90
43320;DHT22;28914;48.722;9.332;2023-06-04T00:13:45;18.30;55.30
43320;DHT22;28914;48.722;9.332;2023-06-04T00:19:04;18.20;56.10
43320;DHT22;28914;48.722;9.332;2023-06-04T00:24:23;18.10;56.00
43320;DHT22;28914;48.722;9.332;2023-06-04T00:29:42;18.00;55.90
43320;DHT22;28914;48.722;9.332;2023-06-04T00:35:02;17.90;56.30
43320;DHT22;28914;48.722;9.332;2023-06-04T00:40:21;17.80;56.40
43320;DHT22;28914;48.722;9.332;2023-06-04T00:45:40;17.70;56.70
43320;DHT22;28914;48.722;9.332;2023-06-04T00:51:00;17.60;56.90
43320;DHT22;28914;48.722;9.332;2023-06-04T00:56:20;17.60;57.90
43320;DHT22;28914;48.722;9.332;2023-06-04T01:07:04;17.40;57.90
43320;DHT22;28914;48.722;9.332;2023-06-04T01:12:26;17.30;57.70
43320;DHT22;28914;48.722;9.332;2023-06-04T01:17:48;17.20;57.80
43320;DHT22;28914;48.722;9.332;2023-06-04T01:23:27;17.10;58.10
43320;DHT22;28914;48.722;9.332;2023-06-04T01:28:54;17.10;59.10
43320;DHT22;28914;48.722;9.332;2023-06-04T01:34:13;17.00;58.10
43320;DHT22;28914;48.722;9.332;2023-06-04T01:39:32;17.00;58.80
43320;DHT22;28914;48.722;9.332;2023-06-04T01:44:51;16.90;58.30
43320;DHT22;28914;48.722;9.332;2023-06-04T01:50:10;16.90;59.00
43320;DHT22;28914;48.722;9.332;2023-06-04T01:55:29;16.80;58.70
43320;DHT22;28914;48.722;9.332;2023-06-04T02:00:54;16.70;58.80
43320;DHT22;28914;48.722;9.332;2023-06-04T02:06:14;16.60;58.70
43320;DHT22;28914;48.722;9.332;2023-06-04T02:11:33;16.50;59.10
43320;DHT22;28914;48.722;9.332;2023-06-04T02:16:52;16.40;59.20
43320;DHT22;28914;48.722;9.332;2023-06-04T02:22:17;16.40;59.60
43320;DHT22;28914;48.722;9.332;2023-06-04T02:27:37;16.30;59.70
43320;DHT22;28914;48.722;9.332;2023-06-04T02:32:56;16.20;59.60
43320;DHT22;28914;48.722;9.332;2023-06-04T02:38:15;16.10;59.70
43320;DHT22;28914;48.722;9.332;2023-06-04T02:43:34;16.00;59.70
43320;DHT22;28914;48.722;9.332;2023-06-04T02:48:53;16.00;59.80
43320;DHT22;28914;48.722;9.332;2023-06-04T02:54:13;15.90;60.00
43320;DHT22;28914;48.722;9.332;2023-06-04T02:59:32;15.80;60.60
43320;DHT22;28914;48.722;9.332;2023-06-04T03:04:51;15.80;60.60
43320;DHT22;28914;48.722;9.332;2023-06-04T03:10:12;15.70;60.70
43320;DHT22;28914;48.722;9.332;2023-06-04T03:15:31;15.70;61.00
43320;DHT22;28914;48.722;9.332;2023-06-04T03:20:50;15.60;60.80
43320;DHT22;28914;48.722;9.332;2023-06-04T03:26:09;15.60;61.30
43320;DHT22;28914;48.722;9.332;2023-06-04T03:31:31;15.60;61.60
43320;DHT22;28914;48.722;9.332;2023-06-04T03:36:52;15.50;61.30
43320;DHT22;28914;48.722;9.332;2023-06-04T03:42:11;15.50;61.60
43320;DHT22;28914;48.722;9.332;2023-06-04T03:47:30;15.50;61.90
43320;DHT22;28914;48.722;9.332;2023-06-04T03:52:49;15.50;62.20
43320;DHT22;28914;48.722;9.332;2023-06-04T03:58:09;15.40;62.20
43320;DHT22;28914;48.722;9.332;2023-06-04T04:03:30;15.40;62.10
43320;DHT22;28914;48.722;9.332;2023-06-04T04:08:50;15.40;61.90
43320;DHT22;28914;48.722;9.332;2023-06-04T04:14:09;15.50;62.20
43320;DHT22;28914;48.722;9.332;2023-06-04T04:19:28;15.50;62.10
43320;DHT22;28914;48.722;9.332;2023-06-04T04:24:47;15.60;62.30
43320;DHT22;28914;48.722;9.332;2023-06-04T04:30:07;15.70;62.30
43320;DHT22;28914;48.722;9.332;2023-06-04T04:35:26;15.80;62.70
43320;DHT22;28914;48.722;9.332;2023-06-04T04:40:45;15.90;63.40
43320;DHT22;28914;48.722;9.332;2023-06-04T04:46:06;16.10;64.00
43320;DHT22;28914;48.722;9.332;2023-06-04T04:51:25;16.20;64.50
43320;DHT22;28914;48.722;9.332;2023-06-04T04:56:44;16.30;64.10
43320;DHT22;28914;48.722;9.332;2023-06-04T05:02:03;16.40;63.90
43320;DHT22;28914;48.722;9.332;2023-06-04T05:07:22;16.60;63.60
43320;DHT22;28914;48.722;9.332;2023-06-04T05:12:58;16.80;63.50
43320;DHT22;28914;48.722;9.332;2023-06-04T05:18:17;17.00;63.50
43320;DHT22;28914;48.722;9.332;2023-06-04T05:23:39;17.20;63.20
43320;DHT22;28914;48.722;9.332;2023-06-04T05:28:59;17.50;62.90
43320;DHT22;28914;48.722;9.332;2023-06-04T05:34:19;17.80;62.70
43320;DHT22;28914;48.722;9.332;2023-06-04T05:39:38;18.20;62.50
43320;DHT22;28914;48.722;9.332;2023-06-04T05:44:57;18.50;60.80
43320;DHT22;28914;48.722;9.332;2023-06-04T05:50:16;18.90;59.10
43320;DHT22;28914;48.722;9.332;2023-06-04T05:55:35;19.20;58.40
43320;DHT22;28914;48.722;9.332;2023-06-04T06:00:54;19.40;57.30
43320;DHT22;28914;48.722;9.332;2023-06-04T06:06:13;19.70;56.30
43320;DHT22;28914;48.722;9.332;2023-06-04T06:11:32;20.00;55.70
43320;DHT22;28914;48.722;9.332;2023-06-04T06:16:52;20.30;55.20
43320;DHT22;28914;48.722;9.332;2023-06-04T06:22:12;20.60;55.00
43320;DHT22;28914;48.722;9.332;2023-06-04T06:27:31;20.90;54.80
43320;DHT22;28914;48.722;9.332;2023-06-04T06:32:50;21.30;53.80
43320;DHT22;28914;48.722;9.332;2023-06-04T06:38:09;21.70;53.00
43320;DHT22;28914;48.722;9.332;2023-06-04T06:43:28;22.00;52.30
43320;DHT22;28914;48.722;9.332;2023-06-04T06:48:48;22.30;51.10
43320;DHT22;28914;48.722;9.332;2023-06-04T06:54:10;22.60;52.30
43320;DHT22;28914;48.722;9.332;2023-06-04T06:59:29;23.00;50.70
43320;DHT22;28914;48.722;9.332;2023-06-04T07:04:48;23.40;49.50
43320;DHT22;28914;48.722;9.332;2023-06-04T07:10:07;23.80;49.20
43320;DHT22;28914;48.722;9.332;2023-06-04T07:15:27;24.40;50.00
43320;DHT22;28914;48.722;9.332;2023-06-04T07:20:46;25.10;47.70
43320;DHT22;28914;48.722;9.332;2023-06-04T07:26:05;25.60;46.80
43320;DHT22;28914;48.722;9.332;2023-06-04T07:31:24;26.20;46.30
43320;DHT22;28914;48.722;9.332;2023-06-04T07:36:43;26.70;45.80
43320;DHT22;28914;48.722;9.332;2023-06-04T07:42:04;27.50;44.50
43320;DHT22;28914;48.722;9.332;2023-06-04T07:47:24;28.30;45.40
43320;DHT22;28914;48.722;9.332;2023-06-04T07:52:43;29.40;44.20
43320;DHT22;28914;48.722;9.332;2023-06-04T07:58:02;30.70;42.30
43320;DHT22;28914;48.722;9.332;2023-06-04T08:03:22;31.90;39.40
43320;DHT22;28914;48.722;9.332;2023-06-04T08:08:43;32.90;39.00
43320;DHT22;28914;48.722;9.332;2023-06-04T08:14:04;34.10;37.20
43320;DHT22;28914;48.722;9.332;2023-06-04T08:19:23;35.10;37.00
43320;DHT22;28914;48.722;9.332;2023-06-04T08:24:43;36.20;35.90
43320;DHT22;28914;48.722;9.332;2023-06-04T08:30:02;37.30;35.30
43320;DHT22;28914;48.722;9.332;2023-06-04T08:35:21;38.50;33.10
43320;DHT22;28914;48.722;9.332;2023-06-04T08:40:40;39.70;32.10
43320;DHT22;28914;48.722;9.332;2023-06-04T08:45:59;40.60;31.50
43320;DHT22;28914;48.722;9.332;2023-06-04T08:51:25;41.40;30.80
43320;DHT22;28914;48.722;9.332;2023-06-04T08:56:45;42.50;30.40
43320;DHT22;28914;48.722;9.332;2023-06-04T09:02:05;43.70;29.50
43320;DHT22;28914;48.722;9.332;2023-06-04T09:07:25;44.80;29.40
43320;DHT22;28914;48.722;9.332;2023-06-04T09:12:47;45.90;28.10
43320;DHT22;28914;48.722;9.332;2023-06-04T09:18:06;46.70;26.80
43320;DHT22;28914;48.722;9.332;2023-06-04T09:23:25;47.30;26.10
43320;DHT22;28914;48.722;9.332;2023-06-04T09:28:45;47.90;26.70
43320;DHT22;28914;48.722;9.332;2023-06-04T09:34:04;48.60;26.40
43320;DHT22;28914;48.722;9.332;2023-06-04T09:39:25;48.50;22.90
43320;DHT22;28914;48.722;9.332;2023-06-04T09:44:44;48.20;22.60
43320;DHT22;28914;48.722;9.332;2023-06-04T09:50:07;47.90;24.40
43320;DHT22;28914;48.722;9.332;2023-06-04T09:55:26;48.10;24.00
43320;DHT22;28914;48.722;9.332;2023-06-04T10:00:46;48.60;24.10
43320;DHT22;28914;48.722;9.332;2023-06-04T10:06:06;49.10;23.70
43320;DHT22;28914;48.722;9.332;2023-06-04T10:11:35;49.70;22.80
43320;DHT22;28914;48.722;9.332;2023-06-04T10:16:57;50.20;21.90
43320;DHT22;28914;48.722;9.332;2023-06-04T10:22:16;50.50;21.80
43320;DHT22;28914;48.722;9.332;2023-06-04T10:27:35;50.80;22.00
43320;DHT22;28914;48.722;9.332;2023-06-04T10:32:57;51.30;22.50
43320;DHT22;28914;48.722;9.332;2023-06-04T10:38:16;51.80;22.90
43320;DHT22;28914;48.722;9.332;2023-06-04T10:43:37;52.50;22.00
43320;DHT22;28914;48.722;9.332;2023-06-04T10:48:56;53.00;22.10
43320;DHT22;28914;48.722;9.332;2023-06-04T10:54:23;53.20;20.40
43320;DHT22;28914;48.722;9.332;2023-06-04T10:59:57;52.80;20.40
43320;DHT22;28914;48.722;9.332;2023-06-04T11:05:16;52.30;20.50
43320;DHT22;28914;48.722;9.332;2023-06-04T11:10:45;51.60;21.00
43320;DHT22;28914;48.722;9.332;2023-06-04T11:16:17;50.80;21.10
43320;DHT22;28914;48.722;9.332;2023-06-04T11:21:37;49.30;20.00
43320;DHT22;28914;48.722;9.332;2023-06-04T11:26:57;47.20;21.00
43320;DHT22;28914;48.722;9.332;2023-06-04T11:32:25;45.10;21.80
43320;DHT22;28914;48.722;9.332;2023-06-04T11:37:54;43.10;22.10
43320;DHT22;28914;48.722;9.332;2023-06-04T11:43:13;41.40;23.00
43320;DHT22;28914;48.722;9.332;2023-06-04T11:48:33;40.00;23.50
43320;DHT22;28914;48.722;9.332;2023-06-04T11:53:52;39.00;24.20
43320;DHT22;28914;48.722;9.332;2023-06-04T11:59:13;37.90;24.70
43320;DHT22;28914;48.722;9.332;2023-06-04T12:04:33;36.80;25.00
43320;DHT22;28914;48.722;9.332;2023-06-04T12:09:52;35.80;25.70
43320;DHT22;28914;48.722;9.332;2023-06-04T12:15:18;35.10;26.10
43320;DHT22;28914;48.722;9.332;2023-06-04T12:20:39;34.70;26.70
43320;DHT22;28914;48.722;9.332;2023-06-04T12:25:59;34.50;27.00
43320;DHT22;28914;48.722;9.332;2023-06-04T12:31:21;34.40;26.80
43320;DHT22;28914;48.722;9.332;2023-06-04T12:36:41;34.30;26.80
43320;DHT22;28914;48.722;9.332;2023-06-04T12:42:02;34.10;26.70
43320;DHT22;28914;48.722;9.332;2023-06-04T12:47:21;33.90;26.70
43320;DHT22;28914;48.722;9.332;2023-06-04T12:52:40;33.80;26.70
43320;DHT22;28914;48.722;9.332;2023-06-04T12:58:00;33.80;26.70
43320;DHT22;28914;48.722;9.332;2023-06-04T13:03:19;33.60;26.70
43320;DHT22;28914;48.722;9.332;2023-06-04T13:08:38;33.50;27.20
43320;DHT22;28914;48.722;9.332;2023-06-04T13:13:57;33.40;27.30
43320;DHT22;28914;48.722;9.332;2023-06-04T13:19:16;33.20;27.40
43320;DHT22;28914;48.722;9.332;2023-06-04T13:24:35;32.90;27.70
43320;DHT22;28914;48.722;9.332;2023-06-04T13:29:54;32.70;28.00
43320;DHT22;28914;48.722;9.332;2023-06-04T13:35:13;32.60;27.90
43320;DHT22;28914;48.722;9.332;2023-06-04T13:40:34;32.40;28.00
43320;DHT22;28914;48.722;9.332;2023-06-04T13:45:53;32.20;28.00
43320;DHT22;28914;48.722;9.332;2023-06-04T13:51:13;32.00;28.10
43320;DHT22;28914;48.722;9.332;2023-06-04T13:56:32;31.80;28.00
43320;DHT22;28914;48.722;9.332;2023-06-04T14:01:51;31.50;28.30
43320;DHT22;28914;48.722;9.332;2023-06-04T14:07:10;31.40;28.40
43320;DHT22;28914;48.722;9.332;2023-06-04T14:12:29;31.20;28.40
43320;DHT22;28914;48.722;9.332;2023-06-04T14:17:48;31.10;28.70
43320;DHT22;28914;48.722;9.332;2023-06-04T14:23:07;31.10;28.80
43320;DHT22;28914;48.722;9.332;2023-06-04T14:28:26;31.20;29.00
43320;DHT22;28914;48.722;9.332;2023-06-04T14:33:45;31.30;28.90
43320;DHT22;28914;48.722;9.332;2023-06-04T14:39:04;31.40;28.90
43320;DHT22;28914;48.722;9.332;2023-06-04T14:44:23;31.30;28.70
43320;DHT22;28914;48.722;9.332;2023-06-04T14:49:42;31.20;28.30
43320;DHT22;28914;48.722;9.332;2023-06-04T14:55:01;31.00;28.60
43320;DHT22;28914;48.722;9.332;2023-06-04T15:00:20;30.90;28.50
43320;DHT22;28914;48.722;9.332;2023-06-04T15:05:39;30.80;28.80
43320;DHT22;28914;48.722;9.332;2023-06-04T15:10:58;30.80;29.00
43320;DHT22;28914;48.722;9.332;2023-06-04T15:16:17;30.80;29.00
43320;DHT22;28914;48.722;9.332;2023-06-04T15:21:36;30.80;28.70
43320;DHT22;28914;48.722;9.332;2023-06-04T15:26:55;30.80;28.70
43320;DHT22;28914;48.722;9.332;2023-06-04T15:32:15;30.80;28.50
43320;DHT22;28914;48.722;9.332;2023-06-04T15:37:34;30.60;28.60
43320;DHT22;28914;48.722;9.332;2023-06-04T15:42:53;30.50;28.70
43320;DHT22;28914;48.722;9.332;2023-06-04T15:48:12;30.30;28.60
43320;DHT22;28914;48.722;9.332;2023-06-04T15:53:32;30.10;28.90
43320;DHT22;28914;48.722;9.332;2023-06-04T15:58:51;30.00;29.00
43320;DHT22;28914;48.722;9.332;2023-06-04T16:04:14;29.90;29.10
43320;DHT22;28914;48.722;9.332;2023-06-04T16:09:33;29.80;29.20
43320;DHT22;28914;48.722;9.332;2023-06-04T16:14:52;29.60;29.30
43320;DHT22;28914;48.722;9.332;2023-06-04T16:20:11;29.50;29.20
43320;DHT22;28914;48.722;9.332;2023-06-04T16:25:30;29.40;29.40
43320;DHT22;28914;48.722;9.332;2023-06-04T16:30:49;29.30;29.60
43320;DHT22;28914;48.722;9.332;2023-06-04T16:36:08;29.30;30.40
43320;DHT22;28914;48.722;9.332;2023-06-04T16:41:27;29.40;29.90
43320;DHT22;28914;48.722;9.332;2023-06-04T16:46:47;29.40;30.30
43320;DHT22;28914;48.722;9.332;2023-06-04T16:52:05;29.40;30.00
43320;DHT22;28914;48.722;9.332;2023-06-04T16:57:26;29.30;29.70
43320;DHT22;28914;48.722;9.332;2023-06-04T17:02:44;29.10;29.90
43320;DHT22;28914;48.722;9.332;2023-06-04T17:08:03;29.00;29.80
43320;DHT22;28914;48.722;9.332;2023-06-04T17:13:22;28.80;30.00
43320;DHT22;28914;48.722;9.332;2023-06-04T17:18:42;28.70;30.40
43320;DHT22;28914;48.722;9.332;2023-06-04T17:24:01;28.60;30.30
43320;DHT22;28914;48.722;9.332;2023-06-04T17:29:22;28.50;30.70
43320;DHT22;28914;48.722;9.332;2023-06-04T17:34:41;28.40;30.90
43320;DHT22;28914;48.722;9.332;2023-06-04T17:40:00;28.30;31.20
43320;DHT22;28914;48.722;9.332;2023-06-04T17:45:19;28.20;31.00
43320;DHT22;28914;48.722;9.332;2023-06-04T17:50:39;28.10;31.30
43320;DHT22;28914;48.722;9.332;2023-06-04T17:55:58;28.00;31.40
43320;DHT22;28914;48.722;9.332;2023-06-04T18:01:17;27.90;31.50
43320;DHT22;28914;48.722;9.332;2023-06-04T18:06:36;27.90;31.50
43320;DHT22;28914;48.722;9.332;2023-06-04T18:11:56;27.90;31.60
43320;DHT22;28914;48.722;9.332;2023-06-04T18:17:15;27.90;31.60
43320;DHT22;28914;48.722;9.332;2023-06-04T18:22:34;27.80;31.50
43320;DHT22;28914;48.722;9.332;2023-06-04T18:27:53;27.70;31.60
43320;DHT22;28914;48.722;9.332;2023-06-04T18:33:13;27.50;31.60
43320;DHT22;28914;48.722;9.332;2023-06-04T18:38:32;27.30;31.60
43320;DHT22;28914;48.722;9.332;2023-06-04T18:43:51;27.20;31.70
43320;DHT22;28914;48.722;9.332;2023-06-04T18:49:10;27.00;31.80
43320;DHT22;28914;48.722;9.332;2023-06-04T18:54:29;26.80;31.90
43320;DHT22;28914;48.722;9.332;2023-06-04T18:59:49;26.70;32.00
43320;DHT22;28914;48.722;9.332;2023-06-04T19:05:09;26.50;32.10
43320;DHT22;28914;48.722;9.332;2023-06-04T19:10:29;26.30;32.50
43320;DHT22;28914;48.722;9.332;2023-06-04T19:15:48;26.10;32.50
43320;DHT22;28914;48.722;9.332;2023-06-04T19:21:14;25.90;32.80
43320;DHT22;28914;48.722;9.332;2023-06-04T19:26:34;25.70;32.90
43320;DHT22;28914;48.722;9.332;2023-06-04T19:31:53;25.50;33.10
43320;DHT22;28914;48.722;9.332;2023-06-04T19:37:12;25.30;33.30
43320;DHT22;28914;48.722;9.332;2023-06-04T19:42:31;25.10;33.60
43320;DHT22;28914;48.722;9.332;2023-06-04T19:47:50;24.90;33.90
43320;DHT22;28914;48.722;9.332;2023-06-04T19:53:09;24.70;34.10
43320;DHT22;28914;48.722;9.332;2023-06-04T19:58:28;24.50;34.40
43320;DHT22;28914;48.722;9.332;2023-06-04T20:03:47;24.30;34.70
43320;DHT22;28914;48.722;9.332;2023-06-04T20:09:08;24.20;34.90
43320;DHT22;28914;48.722;9.332;2023-06-04T20:14:27;24.00;35.40
43320;DHT22;28914;48.722;9.332;2023-06-04T20:19:46;23.80;35.40
43320;DHT22;28914;48.722;9.332;2023-06-04T20:25:05;23.70;36.10
43320;DHT22;28914;48.722;9.332;2023-06-04T20:30:25;23.50;36.70
43320;DHT22;28914;48.722;9.332;2023-06-04T20:35:45;23.30;37.20
43320;DHT22;28914;48.722;9.332;2023-06-04T20:41:04;23.10;38.20
43320;DHT22;28914;48.722;9.332;2023-06-04T20:46:23;23.00;38.90
43320;DHT22;28914;48.722;9.332;2023-06-04T20:51:42;22.70;38.60
43320;DHT22;28914;48.722;9.332;2023-06-04T20:57:01;22.40;39.00
43320;DHT22;28914;48.722;9.332;2023-06-04T21:02:20;22.20;39.50
43320;DHT22;28914;48.722;9.332;2023-06-04T21:07:40;22.00;39.40
43320;DHT22;28914;48.722;9.332;2023-06-04T21:12:59;21.80;39.70
43320;DHT22;28914;48.722;9.332;2023-06-04T21:18:18;21.60;40.00
43320;DHT22;28914;48.722;9.332;2023-06-04T21:23:37;21.50;40.50
43320;DHT22;28914;48.722;9.332;2023-06-04T21:28:56;21.30;41.30
43320;DHT22;28914;48.722;9.332;2023-06-04T21:34:15;21.10;41.30
43320;DHT22;28914;48.722;9.332;2023-06-04T21:39:35;21.00;41.80
43320;DHT22;28914;48.722;9.332;2023-06-04T21:44:54;20.90;41.90
43320;DHT22;28914;48.722;9.332;2023-06-04T21:50:13;20.70;42.20
43320;DHT22;28914;48.722;9.332;2023-06-04T21:55:34;20.50;42.40
43320;DHT22;28914;48.722;9.332;2023-06-04T22:00:54;20.40;43.80
43320;DHT22;28914;48.722;9.332;2023-06-04T22:06:14;20.30;43.50
43320;DHT22;28914;48.722;9.332;2023-06-04T22:11:33;20.10;43.80
43320;DHT22;28914;48.722;9.332;2023-06-04T22:16:52;20.00;44.20
43320;DHT22;28914;48.722;9.332;2023-06-04T22:22:11;19.90;45.00
43320;DHT22;28914;48.722;9.332;2023-06-04T22:27:30;19.70;45.90
43320;DHT22;28914;48.722;9.332;2023-06-04T22:32:49;19.60;45.30
43320;DHT22;28914;48.722;9.332;2023-06-04T22:38:08;19.50;45.60
43320;DHT22;28914;48.722;9.332;2023-06-04T22:43:27;19.40;46.40
43320;DHT22;28914;48.722;9.332;2023-06-04T22:48:46;19.30;46.80
43320;DHT22;28914;48.722;9.332;2023-06-04T22:54:05;19.20;47.30
43320;DHT22;28914;48.722;9.332;2023-06-04T22:59:25;19.00;46.70
43320;DHT22;28914;48.722;9.332;2023-06-04T23:04:45;19.00;47.20
43320;DHT22;28914;48.722;9.332;2023-06-04T23:10:05;18.80;48.30
43320;DHT22;28914;48.722;9.332;2023-06-04T23:15:24;18.80;47.60
43320;DHT22;28914;48.722;9.332;2023-06-04T23:20:43;18.70;47.50
43320;DHT22;28914;48.722;9.332;2023-06-04T23:26:03;18.60;47.90
43320;DHT22;28914;48.722;9.332;2023-06-04T23:31:22;18.40;48.30
43320;DHT22;28914;48.722;9.332;2023-06-04T23:36:41;18.40;48.60
43320;DHT22;28914;48.722;9.332;2023-06-04T23:42:00;18.20;48.80
43320;DHT22;28914;48.722;9.332;2023-06-04T23:47:19;18.20;49.10
43320;DHT22;28914;48.722;9.332;2023-06-04T23:52:38;18.10;49.30
43320;DHT22;28914;48.722;9.332;2023-06-04T23:57:58;17.90;49.50
